createdAt,value
2023-04-09T00:01:08.845Z,8.10
2023-04-09T00:03:40.464Z,8.00
2023-04-09T00:06:08.947Z,8.00
2023-04-09T00:08:37.087Z,8.00
2023-04-09T00:11:05.752Z,8.00
2023-04-09T00:13:39.024Z,7.90
2023-04-09T00:16:08.713Z,7.90
2023-04-09T00:18:38.570Z,7.90
2023-04-09T00:21:08.520Z,8.00
2023-04-09T00:23:36.753Z,8.00
2023-04-09T00:26:05.025Z,8.00
2023-04-09T00:28:33.238Z,8.00
2023-04-09T00:31:01.454Z,8.10
2023-04-09T00:33:29.681Z,8.10
2023-04-09T00:35:59.233Z,8.10
2023-04-09T00:38:27.500Z,8.00
2023-04-09T00:40:55.729Z,8.10
2023-04-09T00:43:23.938Z,8.10
2023-04-09T00:45:52.223Z,8.10
2023-04-09T00:48:20.472Z,8.10
2023-04-09T00:50:48.688Z,8.10
2023-04-09T00:53:19.142Z,8.10
2023-04-09T00:55:47.503Z,8.10
2023-04-09T00:58:15.774Z,8.10
2023-04-09T01:00:43.947Z,8.10
2023-04-09T01:03:12.363Z,8.10
2023-04-09T01:05:45.752Z,8.10
2023-04-09T01:08:21.037Z,8.10
2023-04-09T01:10:58.399Z,8.00
2023-04-09T01:13:31.951Z,8.00
2023-04-09T01:16:03.227Z,8.00
2023-04-09T01:18:36.967Z,8.00
2023-04-09T01:21:10.918Z,7.90
2023-04-09T01:23:48.742Z,7.90
2023-04-09T01:26:30.876Z,7.90
2023-04-09T01:29:03.378Z,7.80
2023-04-09T01:31:35.284Z,7.90
2023-04-09T01:34:04.808Z,7.90
2023-04-09T01:36:34.419Z,7.90
2023-04-09T01:39:03.520Z,7.90
2023-04-09T01:41:34.216Z,7.80
2023-04-09T01:44:05.774Z,7.90
2023-04-09T01:46:34.839Z,7.90
2023-04-09T01:49:03.942Z,7.90
2023-04-09T01:51:33.244Z,7.80
2023-04-09T01:54:01.735Z,7.80
2023-04-09T01:56:29.956Z,7.80
2023-04-09T01:58:58.056Z,7.70
2023-04-09T02:01:34.527Z,7.80
2023-04-09T02:04:06.682Z,7.80
2023-04-09T02:06:41.407Z,7.80
2023-04-09T02:09:10.721Z,7.80
2023-04-09T02:11:41.554Z,7.90
2023-04-09T02:14:11.284Z,7.80
2023-04-09T02:16:43.335Z,7.90
2023-04-09T02:19:11.683Z,7.90
2023-04-09T02:21:39.852Z,7.90
2023-04-09T02:24:08.175Z,7.90
2023-04-09T02:26:36.360Z,7.90
2023-04-09T02:29:04.617Z,7.90
2023-04-09T02:31:32.830Z,7.90
2023-04-09T02:34:02.455Z,7.80
2023-04-09T02:36:31.136Z,7.90
2023-04-09T02:38:59.307Z,7.40
2023-04-09T02:41:27.444Z,7.70
2023-04-09T02:43:55.608Z,7.70
2023-04-09T02:46:23.837Z,7.70
2023-04-09T02:48:52.154Z,7.70
2023-04-09T02:51:21.853Z,7.70
2023-04-09T02:53:49.993Z,7.60
2023-04-09T02:56:18.145Z,7.70
2023-04-09T02:58:46.382Z,7.70
2023-04-09T03:01:14.595Z,7.60
2023-04-09T03:03:43.173Z,7.60
2023-04-09T03:06:11.427Z,7.60
2023-04-09T03:08:40.972Z,7.60
2023-04-09T03:11:09.184Z,7.60
2023-04-09T03:13:37.370Z,7.60
2023-04-09T03:16:06.002Z,7.60
2023-04-09T03:18:34.171Z,7.60
2023-04-09T03:21:06.623Z,7.60
2023-04-09T03:23:35.183Z,7.50
2023-04-09T03:26:05.951Z,7.50
2023-04-09T03:28:34.395Z,7.60
2023-04-09T03:31:02.552Z,7.60
2023-04-09T03:33:30.684Z,7.60
2023-04-09T03:35:58.844Z,7.60
2023-04-09T03:38:27.063Z,7.60
2023-04-09T03:40:55.196Z,7.60
2023-04-09T03:43:24.742Z,7.60
2023-04-09T03:45:52.886Z,7.60
2023-04-09T03:48:21.056Z,7.60
2023-04-09T03:50:49.157Z,7.60
2023-04-09T03:53:17.292Z,7.70
2023-04-09T03:55:45.420Z,7.60
2023-04-09T03:58:13.569Z,7.60
2023-04-09T04:00:43.434Z,7.50
2023-04-09T04:03:14.725Z,7.50
2023-04-09T04:05:43.174Z,7.50
2023-04-09T04:08:11.297Z,7.50
2023-04-09T04:10:39.496Z,7.50
2023-04-09T04:13:08.378Z,7.50
2023-04-09T04:15:42.511Z,7.50
2023-04-09T04:18:10.958Z,7.40
2023-04-09T04:20:39.742Z,7.40
2023-04-09T04:23:07.904Z,7.40
2023-04-09T04:25:36.028Z,7.40
2023-04-09T04:28:04.144Z,7.40
2023-04-09T04:30:32.319Z,7.40
2023-04-09T04:33:01.931Z,7.30
2023-04-09T04:35:30.211Z,7.30
2023-04-09T04:37:58.335Z,7.40
2023-04-09T04:40:26.483Z,7.30
2023-04-09T04:42:54.595Z,7.40
2023-04-09T04:45:22.701Z,7.40
2023-04-09T04:47:50.839Z,7.40
2023-04-09T04:50:20.478Z,7.40
2023-04-09T04:52:48.657Z,7.40
2023-04-09T04:55:16.891Z,7.40
2023-04-09T04:57:45.004Z,7.40
2023-04-09T05:00:14.576Z,7.40
2023-04-09T05:02:42.856Z,7.40
2023-04-09T05:05:11.231Z,7.50
2023-04-09T05:07:40.721Z,7.50
2023-04-09T05:10:10.382Z,7.60
2023-04-09T05:12:38.542Z,7.60
2023-04-09T05:15:08.028Z,7.70
2023-04-09T05:17:36.191Z,7.80
2023-04-09T05:20:04.873Z,7.80
2023-04-09T05:22:32.985Z,7.80
2023-04-09T05:25:02.578Z,7.80
2023-04-09T05:27:31.264Z,7.90
2023-04-09T05:30:00.758Z,7.90
2023-04-09T05:32:29.384Z,7.90
2023-04-09T05:34:57.576Z,7.90
2023-04-09T05:37:25.796Z,8.00
2023-04-09T05:39:53.968Z,8.10
2023-04-09T05:42:23.502Z,8.10
2023-04-09T05:44:51.637Z,8.20
2023-04-09T05:47:19.779Z,8.20
2023-04-09T05:49:48.276Z,8.30
2023-04-09T05:52:17.199Z,8.30
2023-04-09T05:54:45.394Z,8.40
2023-04-09T05:57:13.559Z,8.40
2023-04-09T05:59:43.147Z,8.50
2023-04-09T06:02:11.402Z,8.40
2023-04-09T06:04:39.614Z,8.50
2023-04-09T06:07:07.830Z,8.50
2023-04-09T06:09:35.993Z,8.50
2023-04-09T06:12:04.150Z,8.40
2023-04-09T06:14:33.166Z,8.50
2023-04-09T06:17:03.538Z,8.60
2023-04-09T06:19:31.675Z,8.60
2023-04-09T06:21:59.845Z,8.60
2023-04-09T06:24:27.998Z,8.50
2023-04-09T06:26:56.131Z,8.60
2023-04-09T06:29:24.461Z,8.60
2023-04-09T06:31:52.677Z,8.60
2023-04-09T06:34:22.289Z,8.50
2023-04-09T06:36:50.422Z,8.60
2023-04-09T06:39:18.571Z,8.60
2023-04-09T06:41:46.714Z,8.80
2023-04-09T06:44:14.995Z,8.90
2023-04-09T06:46:43.257Z,9.00
2023-04-09T06:49:11.422Z,9.20
2023-04-09T06:51:41.012Z,9.30
2023-04-09T06:54:09.172Z,9.40
2023-04-09T06:56:37.305Z,9.50
2023-04-09T06:59:05.432Z,9.60
2023-04-09T07:01:35.607Z,9.70
2023-04-09T07:04:03.901Z,9.80
2023-04-09T07:06:32.186Z,9.90
2023-04-09T07:09:01.749Z,10.00
2023-04-09T07:11:29.889Z,9.90
2023-04-09T07:13:58.003Z,10.00
2023-04-09T07:16:26.173Z,10.20
2023-04-09T07:18:54.389Z,10.20
2023-04-09T07:21:22.534Z,10.20
2023-04-09T07:23:51.111Z,10.00
2023-04-09T07:26:21.326Z,10.10
2023-04-09T07:28:49.578Z,10.20
2023-04-09T07:31:17.815Z,10.30
2023-04-09T07:33:46.131Z,10.40
2023-04-09T07:36:14.309Z,10.30
2023-04-09T07:38:42.629Z,10.10
2023-04-09T07:41:12.436Z,10.30
2023-04-09T07:43:42.509Z,10.30
2023-04-09T07:46:10.685Z,10.30
2023-04-09T07:48:38.880Z,10.20
2023-04-09T07:51:07.214Z,10.30
2023-04-09T07:53:35.421Z,10.50
2023-04-09T07:56:03.617Z,10.80
2023-04-09T07:58:31.764Z,11.00
2023-04-09T08:01:01.275Z,11.00
2023-04-09T08:03:29.638Z,10.80
2023-04-09T08:05:57.927Z,11.10
2023-04-09T08:08:26.133Z,11.20
2023-04-09T08:10:54.646Z,11.40
2023-04-09T08:13:25.079Z,11.50
2023-04-09T08:15:53.328Z,11.40
2023-04-09T08:18:22.888Z,11.40
2023-04-09T08:20:51.057Z,11.30
2023-04-09T08:23:19.232Z,11.40
2023-04-09T08:25:47.459Z,11.60
2023-04-09T08:28:15.662Z,11.50
2023-04-09T08:30:44.652Z,11.50
2023-04-09T08:33:13.400Z,11.80
2023-04-09T08:35:43.373Z,11.90
2023-04-09T08:38:11.651Z,12.10
2023-04-09T08:40:40.036Z,12.00
2023-04-09T08:43:09.446Z,12.00
2023-04-09T08:45:37.694Z,12.20
2023-04-09T08:48:09.778Z,12.20
2023-04-09T08:50:38.436Z,12.30
2023-04-09T08:53:10.890Z,12.50
2023-04-09T08:55:39.484Z,12.50
2023-04-09T08:58:09.513Z,12.70
2023-04-09T09:00:37.978Z,12.60
2023-04-09T09:03:08.621Z,12.80
2023-04-09T09:05:38.305Z,13.00
2023-04-09T09:08:08.860Z,13.20
2023-04-09T09:10:41.053Z,13.30
2023-04-09T09:13:23.506Z,13.30
2023-04-09T09:15:55.145Z,13.30
2023-04-09T09:18:38.215Z,13.30
2023-04-09T09:21:12.707Z,13.00
2023-04-09T09:23:42.603Z,12.90
2023-04-09T09:26:16.247Z,13.00
2023-04-09T09:28:44.634Z,13.20
2023-04-09T09:31:13.779Z,13.30
2023-04-09T09:33:42.578Z,13.40
2023-04-09T09:36:11.086Z,13.30
2023-04-09T09:38:55.656Z,13.40
2023-04-09T09:41:24.771Z,13.20
2023-04-09T09:43:53.153Z,13.10
2023-04-09T09:46:23.143Z,13.20
2023-04-09T09:48:51.638Z,12.90
2023-04-09T09:51:20.869Z,12.80
2023-04-09T09:53:51.123Z,12.90
2023-04-09T09:56:26.480Z,12.90
2023-04-09T09:59:01.688Z,12.90
2023-04-09T10:01:30.022Z,12.60
2023-04-09T10:04:01.442Z,12.80
2023-04-09T10:06:30.869Z,12.70
2023-04-09T10:09:00.802Z,12.80
2023-04-09T10:11:31.770Z,12.90
2023-04-09T10:14:07.346Z,12.90
2023-04-09T10:16:39.031Z,13.00
2023-04-09T10:19:17.283Z,12.50
2023-04-09T10:21:54.728Z,12.20
2023-04-09T10:24:28.527Z,12.30
2023-04-09T10:27:15.738Z,12.30
2023-04-09T10:29:46.303Z,12.40
2023-04-09T10:32:22.464Z,12.50
2023-04-09T10:34:54.718Z,12.20
2023-04-09T10:37:27.182Z,12.30
2023-04-09T10:39:56.501Z,12.30
2023-04-09T10:42:31.766Z,12.60
2023-04-09T10:45:08.127Z,12.70
2023-04-09T10:47:40.949Z,13.00
2023-04-09T10:50:26.642Z,13.10
2023-04-09T10:53:03.996Z,13.30
2023-04-09T10:55:36.534Z,13.30
2023-04-09T10:58:10.475Z,13.60
2023-04-09T11:00:42.489Z,13.80
2023-04-09T11:03:37.204Z,13.90
2023-04-09T11:06:10.160Z,13.80
2023-04-09T11:08:39.615Z,13.80
2023-04-09T11:11:07.763Z,13.80
2023-04-09T11:13:37.400Z,14.00
2023-04-09T11:16:07.293Z,14.20
2023-04-09T11:18:39.003Z,14.20
2023-04-09T11:21:13.558Z,14.30
2023-04-09T11:23:43.933Z,14.30
2023-04-09T11:26:14.800Z,14.20
2023-04-09T11:28:44.499Z,14.00
2023-04-09T11:31:12.825Z,13.70
2023-04-09T11:33:42.400Z,13.80
2023-04-09T11:36:20.740Z,13.60
2023-04-09T11:38:54.988Z,13.50
2023-04-09T11:41:37.813Z,13.60
2023-04-09T11:44:12.181Z,13.80
2023-04-09T11:46:44.360Z,13.70
2023-04-09T11:49:15.559Z,13.40
2023-04-09T11:51:45.898Z,13.30
2023-04-09T11:54:16.050Z,13.60
2023-04-09T11:56:47.161Z,14.10
2023-04-09T11:59:21.615Z,14.30
2023-04-09T12:01:56.956Z,14.40
2023-04-09T12:04:25.267Z,14.30
2023-04-09T12:06:58.748Z,14.50
2023-04-09T12:09:27.094Z,14.80
2023-04-09T12:11:56.127Z,15.20
2023-04-09T12:14:27.131Z,15.10
2023-04-09T12:16:55.338Z,14.90
2023-04-09T12:19:30.430Z,15.20
2023-04-09T12:21:59.109Z,15.40
2023-04-09T12:24:28.649Z,15.20
2023-04-09T12:26:57.373Z,15.30
2023-04-09T12:29:30.615Z,15.40
2023-04-09T12:32:04.005Z,15.70
2023-04-09T12:34:32.212Z,16.10
2023-04-09T12:37:00.530Z,16.20
2023-04-09T12:39:29.859Z,16.30
2023-04-09T12:41:58.032Z,16.00
2023-04-09T12:44:30.241Z,16.20
2023-04-09T12:47:05.631Z,17.00
2023-04-09T12:49:33.821Z,17.50
2023-04-09T12:52:07.839Z,18.00
2023-04-09T12:54:36.101Z,18.50
2023-04-09T12:57:04.598Z,18.60
2023-04-09T12:59:35.945Z,18.40
2023-04-09T13:02:04.617Z,18.80
2023-04-09T13:04:35.435Z,19.50
2023-04-09T13:07:06.557Z,18.80
2023-04-09T13:09:35.299Z,19.20
2023-04-09T13:12:04.854Z,19.60
2023-04-09T13:14:37.448Z,19.70
2023-04-09T13:17:05.744Z,19.80
2023-04-09T13:19:35.475Z,20.40
2023-04-09T13:22:03.746Z,20.00
2023-04-09T13:24:33.561Z,20.50
2023-04-09T13:27:02.045Z,20.40
2023-04-09T13:29:30.217Z,19.70
2023-04-09T13:32:02.571Z,19.20
2023-04-09T13:34:30.752Z,18.80
2023-04-09T13:36:58.901Z,18.90
2023-04-09T13:39:27.033Z,19.00
2023-04-09T13:41:58.395Z,19.40
2023-04-09T13:44:29.179Z,18.80
2023-04-09T13:46:57.290Z,18.00
2023-04-09T13:49:27.748Z,17.90
2023-04-09T13:51:58.132Z,17.50
2023-04-09T13:54:26.395Z,17.20
2023-04-09T13:56:54.557Z,17.10
2023-04-09T13:59:23.948Z,16.90
2023-04-09T14:01:52.331Z,16.70
2023-04-09T14:04:20.661Z,16.60
2023-04-09T14:06:52.335Z,16.30
2023-04-09T14:09:20.479Z,16.10
2023-04-09T14:11:49.413Z,16.00
2023-04-09T14:14:17.850Z,15.50
2023-04-09T14:16:45.994Z,15.30
2023-04-09T14:19:14.146Z,14.90
2023-04-09T14:21:43.666Z,14.80
2023-04-09T14:24:23.268Z,14.70
2023-04-09T14:26:53.451Z,14.70
2023-04-09T14:29:22.664Z,14.80
2023-04-09T14:31:51.795Z,14.90
2023-04-09T14:34:19.944Z,15.10
2023-04-09T14:36:50.879Z,15.10
2023-04-09T14:39:20.452Z,15.20
2023-04-09T14:41:48.599Z,15.20
2023-04-09T14:44:16.832Z,15.30
2023-04-09T14:46:45.066Z,15.40
2023-04-09T14:49:13.230Z,15.20
2023-04-09T14:51:41.384Z,15.30
2023-04-09T14:54:09.514Z,15.20
2023-04-09T14:56:39.072Z,15.20
2023-04-09T14:59:07.292Z,15.20
2023-04-09T15:01:35.456Z,15.10
2023-04-09T15:04:03.817Z,15.10
2023-04-09T15:06:32.970Z,15.00
2023-04-09T15:09:01.586Z,14.80
2023-04-09T15:11:29.734Z,14.70
2023-04-09T15:13:59.275Z,14.50
2023-04-09T15:16:28.972Z,14.40
2023-04-09T15:18:59.120Z,14.30
2023-04-09T15:21:27.826Z,14.20
2023-04-09T15:23:58.826Z,14.10
2023-04-09T15:26:27.388Z,14.10
2023-04-09T15:29:02.940Z,14.00
2023-04-09T15:31:31.523Z,14.00
2023-04-09T15:33:59.741Z,13.90
2023-04-09T15:36:29.993Z,13.90
2023-04-09T15:38:58.137Z,13.60
2023-04-09T15:41:26.925Z,13.50
2023-04-09T15:43:55.227Z,13.50
2023-04-09T15:46:25.063Z,13.60
2023-04-09T15:48:53.725Z,13.60
2023-04-09T15:51:22.387Z,13.70
2023-04-09T15:53:50.564Z,13.70
2023-04-09T15:56:19.849Z,13.60
2023-04-09T15:58:48.122Z,13.50
2023-04-09T16:01:17.260Z,13.50
2023-04-09T16:03:51.978Z,13.50
2023-04-09T16:06:21.063Z,13.40
2023-04-09T16:08:49.262Z,13.40
2023-04-09T16:11:17.683Z,13.40
2023-04-09T16:13:46.173Z,13.30
2023-04-09T16:16:14.382Z,13.30
2023-04-09T16:18:42.542Z,13.40
2023-04-09T16:21:12.486Z,13.40
2023-04-09T16:23:40.898Z,13.40
2023-04-09T16:26:09.325Z,13.40
2023-04-09T16:28:37.539Z,13.40
2023-04-09T16:31:05.946Z,13.30
2023-04-09T16:33:34.083Z,13.30
2023-04-09T16:36:02.316Z,13.20
2023-04-09T16:38:31.914Z,13.10
2023-04-09T16:41:00.088Z,13.10
2023-04-09T16:43:28.212Z,13.10
2023-04-09T16:45:57.138Z,13.00
2023-04-09T16:48:25.619Z,12.90
2023-04-09T16:50:53.786Z,12.90
2023-04-09T16:53:21.966Z,12.90
2023-04-09T16:55:51.656Z,12.80
2023-04-09T16:58:19.819Z,12.70
2023-04-09T17:00:49.336Z,12.70
2023-04-09T17:03:19.679Z,12.60
2023-04-09T17:05:49.380Z,12.60
2023-04-09T17:08:18.025Z,12.60
2023-04-09T17:10:46.340Z,12.50
2023-04-09T17:13:15.870Z,12.50
2023-04-09T17:15:44.003Z,12.40
2023-04-09T17:18:12.115Z,12.40
2023-04-09T17:20:40.485Z,12.40
2023-04-09T17:23:08.666Z,12.30
2023-04-09T17:25:36.989Z,12.30
2023-04-09T17:28:05.998Z,12.30
2023-04-09T17:30:36.189Z,12.20
2023-04-09T17:33:04.591Z,12.20
2023-04-09T17:35:32.936Z,12.20
2023-04-09T17:38:02.447Z,12.20
2023-04-09T17:40:30.750Z,12.10
2023-04-09T17:42:59.590Z,12.10
2023-04-09T17:45:27.866Z,12.00
2023-04-09T17:47:57.463Z,12.00
2023-04-09T17:50:25.782Z,12.00
2023-04-09T17:52:53.964Z,12.00
2023-04-09T17:55:23.367Z,11.90
2023-04-09T17:57:51.520Z,11.90
2023-04-09T18:00:19.917Z,11.90
2023-04-09T18:02:48.314Z,11.80
2023-04-09T18:05:18.074Z,11.80
2023-04-09T18:07:46.205Z,11.80
2023-04-09T18:10:14.327Z,11.80
2023-04-09T18:12:42.460Z,11.80
2023-04-09T18:15:11.526Z,11.80
2023-04-09T18:17:39.836Z,11.80
2023-04-09T18:20:08.872Z,11.80
2023-04-09T18:22:38.392Z,11.80
2023-04-09T18:25:07.555Z,11.80
2023-04-09T18:27:37.291Z,11.70
2023-04-09T18:30:06.280Z,11.70
2023-04-09T18:32:34.582Z,11.60
2023-04-09T18:35:02.835Z,11.60
2023-04-09T18:37:31.071Z,11.50
2023-04-09T18:40:02.428Z,11.50
2023-04-09T18:42:31.047Z,11.50
2023-04-09T18:44:59.168Z,11.40
2023-04-09T18:47:27.339Z,11.40
2023-04-09T18:49:55.524Z,11.30
2023-04-09T18:52:23.655Z,11.30
2023-04-09T18:54:51.826Z,11.30
2023-04-09T18:57:21.428Z,11.30
2023-04-09T18:59:49.619Z,11.30
2023-04-09T19:02:18.654Z,11.30
2023-04-09T19:04:47.294Z,11.20
2023-04-09T19:07:15.607Z,11.20
2023-04-09T19:09:44.583Z,11.20
2023-04-09T19:12:12.797Z,11.20
2023-04-09T19:14:42.320Z,11.20
2023-04-09T19:17:11.704Z,11.20
2023-04-09T19:19:39.838Z,11.10
2023-04-09T19:22:08.205Z,11.10
2023-04-09T19:24:36.353Z,11.10
2023-04-09T19:27:09.761Z,11.10
2023-04-09T19:29:38.067Z,11.10
2023-04-09T19:32:12.796Z,11.10
2023-04-09T19:34:41.193Z,11.10
2023-04-09T19:37:09.339Z,11.10
2023-04-09T19:39:37.520Z,11.10
2023-04-09T19:42:05.819Z,11.10
2023-04-09T19:44:33.974Z,11.00
2023-04-09T19:47:02.116Z,11.00
2023-04-09T19:49:31.721Z,10.90
2023-04-09T19:52:00.188Z,10.90
2023-04-09T19:54:28.373Z,10.90
2023-04-09T19:56:56.923Z,10.90
2023-04-09T19:59:25.104Z,10.90
2023-04-09T20:01:53.326Z,10.80
2023-04-09T20:04:24.587Z,10.70
2023-04-09T20:06:55.013Z,10.70
2023-04-09T20:09:26.424Z,10.70
2023-04-09T20:11:54.972Z,10.60
2023-04-09T20:14:23.291Z,10.50
2023-04-09T20:16:51.511Z,10.50
2023-04-09T20:19:19.775Z,10.50
2023-04-09T20:21:49.071Z,10.50
2023-04-09T20:24:18.623Z,10.40
2023-04-09T20:26:47.678Z,10.40
2023-04-09T20:29:15.842Z,10.30
2023-04-09T20:31:44.642Z,10.30
2023-04-09T20:34:12.873Z,10.20
2023-04-09T20:36:43.580Z,10.10
2023-04-09T20:39:12.405Z,10.20
2023-04-09T20:41:42.007Z,10.10
2023-04-09T20:44:10.230Z,10.10
2023-04-09T20:46:38.499Z,10.10
2023-04-09T20:49:06.678Z,10.10
2023-04-09T20:51:34.862Z,10.00
2023-04-09T20:54:04.087Z,10.00
2023-04-09T20:56:32.334Z,9.90
2023-04-09T20:59:02.340Z,9.80
2023-04-09T21:01:32.120Z,9.70
2023-04-09T21:04:00.488Z,9.80
2023-04-09T21:06:28.733Z,9.70
2023-04-09T21:08:58.660Z,9.70
2023-04-09T21:11:27.969Z,9.70
2023-04-09T21:13:56.183Z,9.70
2023-04-09T21:16:27.203Z,9.70
2023-04-09T21:18:55.679Z,9.70
2023-04-09T21:21:24.028Z,9.60
2023-04-09T21:23:52.171Z,9.60
2023-04-09T21:26:20.798Z,9.60
2023-04-09T21:28:50.569Z,9.60
2023-04-09T21:31:19.004Z,9.50
2023-04-09T21:33:48.691Z,9.50
2023-04-09T21:36:17.056Z,9.50
2023-04-09T21:38:45.243Z,9.50
2023-04-09T21:41:13.889Z,9.50
2023-04-09T21:43:42.436Z,9.50
2023-04-09T21:46:10.670Z,9.50
2023-04-09T21:48:40.631Z,9.50
2023-04-09T21:51:12.278Z,9.30
2023-04-09T21:53:40.479Z,9.40
2023-04-09T21:56:09.180Z,9.30
2023-04-09T21:58:37.382Z,9.30
2023-04-09T22:01:15.846Z,9.30
2023-04-09T22:03:50.755Z,9.20
2023-04-09T22:06:20.448Z,9.20
2023-04-09T22:08:55.459Z,9.20
2023-04-09T22:11:27.724Z,9.10
2023-04-09T22:13:57.238Z,9.20
2023-04-09T22:16:26.195Z,9.20
2023-04-09T22:18:55.148Z,9.20
2023-04-09T22:21:24.995Z,9.10
2023-04-09T22:23:53.152Z,9.10
2023-04-09T22:26:21.570Z,9.20
2023-04-09T22:28:50.290Z,9.20
2023-04-09T22:31:19.173Z,9.10
2023-04-09T22:33:47.355Z,9.10
2023-04-09T22:36:15.621Z,9.10
2023-04-09T22:38:45.182Z,9.10
2023-04-09T22:41:13.536Z,9.10
2023-04-09T22:43:41.661Z,9.10
2023-04-09T22:46:09.801Z,9.10
2023-04-09T22:48:44.107Z,9.10
2023-04-09T22:51:13.863Z,9.10
2023-04-09T22:53:42.032Z,9.10
2023-04-09T22:56:11.684Z,8.90
2023-04-09T22:58:40.097Z,8.90
2023-04-09T23:01:08.832Z,8.90
2023-04-09T23:03:37.045Z,8.90
2023-04-09T23:06:05.573Z,8.90
2023-04-09T23:08:33.736Z,8.90
2023-04-09T23:11:01.840Z,8.90
2023-04-09T23:13:31.380Z,8.90
2023-04-09T23:15:59.565Z,8.90
2023-04-09T23:18:27.754Z,8.90
2023-04-09T23:20:55.864Z,8.80
2023-04-09T23:23:24.046Z,8.70
2023-04-09T23:25:52.535Z,8.80
2023-04-09T23:28:20.697Z,8.80
2023-04-09T23:30:50.327Z,8.60
2023-04-09T23:33:18.447Z,8.60
2023-04-09T23:35:46.807Z,8.50
2023-04-09T23:38:15.497Z,8.50
2023-04-09T23:40:43.739Z,8.50
2023-04-09T23:43:12.112Z,8.50
2023-04-09T23:45:40.283Z,8.50
2023-04-09T23:48:10.046Z,8.60
2023-04-09T23:50:40.310Z,8.50
2023-04-09T23:53:08.940Z,8.50
2023-04-09T23:55:40.780Z,8.50
2023-04-09T23:58:09.745Z,8.50
